Airfield :
LOGIN :

Register | Disclaimer

   EN    FR    IT 

 










Legend :    VFR   Marginal VFR   IFR   Intensive IFR   Very Intensive IFR
Visi :
Ceiling :
>= 8 km
>= 3000ft
5 to 8 km
1000 to 3000 ft
1500m to 5 km
500 to 1000 ft
800 to 1500m
200 to 500 ft
< 800m
< 200 ft
Symbols :   Thunderstorms  Fog  Heavy snow  Heavy precipitations  Wind > 20 kt
SIGMETs :     Misc.  Thunderstorms  Icing  Turbulence  Mountain Waves  Volcanic Ashes






- Airport Elevation : 101 ft
- IATA code : GLO


EGBJ - Gloucestershire

CURRENT METAR :
  • 150920Z 29003KT 9999 FEW045 22/14 Q1003

EXPIRED METARs :
  • 150850Z 27003KT CAVOK 22/13 Q1003
  • 150820Z 27003KT CAVOK 22/13 Q1002
  • 150750Z 25003KT CAVOK 22/14 Q1002
  • 150720Z 24004KT CAVOK 21/16 Q1002
  • 150650Z 22005KT 190V260 CAVOK 21/17 Q1002

TAF TAF EGBJ
Valid from the 15 at 09:00 until the 15 at 18:00 UTC


150757Z 1509/1518 26006KT CAVOK
PROB30
TEMPO 1509/1515 7000 SHRA



MET'MAP, your aeronautical weather chart ! - Copyright ORBIFLY December 2007 - Disclaimer

ORBIFLY MET'MAP TEAM :

Programming & Development : Alexandra Zaïnal
Original concept : Baudouin d'Aumeries
Technical & hardware support : Manuel Goepfert
Assistance : Marc-Olivier Méhu




SOURCES & CREDITS :

   NOAA